Argyle, Texas
Current Conditions -  °F | °C
As of 12:53 AM on Sunday 21 Dec 2014 (Local Time) from KDTO Reporting Station
Overcast Overcast  
Wind Chill: 44°   Ceiling: 1100
Heat Index: 46°   Visibility: 8mi
Dew Point: 43°   Wind: 5mph
Humidity: 89%   Direction: 150°SSE
Pressure: 30.16"   Gusts: NA
Location:  33.12°N, 97.18°W
Report Text: KDTO 210653Z AUTO 15004KT 8SM BKN011 OVC032 08/06 A3016 RMK AO2 SLP212 T00780061
Loading
Personal Weather Stations






























Interactive Weather Map New forecast layout! Learn more

10-Day Weather Forecast

Advertisements
Track Severe Weather on mobile